createdAt,value
2023-02-19T00:01:47.044Z,75.73
2023-02-19T00:04:21.399Z,75.58
2023-02-19T00:06:49.042Z,76.60
2023-02-19T00:09:18.905Z,76.55
2023-02-19T00:11:47.539Z,76.40
2023-02-19T00:14:18.765Z,76.63
2023-02-19T00:16:46.120Z,76.48
2023-02-19T00:19:16.702Z,76.74
2023-02-19T00:21:43.612Z,76.49
2023-02-19T00:24:13.690Z,75.86
2023-02-19T00:26:42.364Z,76.55
2023-02-19T00:29:14.782Z,75.92
2023-02-19T00:31:42.410Z,76.41
2023-02-19T00:34:10.887Z,76.05
2023-02-19T00:36:40.027Z,74.96
2023-02-19T00:39:08.534Z,75.42
2023-02-19T00:41:35.133Z,76.09
2023-02-19T00:44:06.953Z,75.69
2023-02-19T00:46:46.459Z,76.13
2023-02-19T00:49:23.119Z,76.31
2023-02-19T00:51:52.110Z,76.71
2023-02-19T00:54:18.745Z,76.06
2023-02-19T00:56:46.140Z,76.23
2023-02-19T00:59:12.768Z,76.15
2023-02-19T01:01:39.473Z,76.23
2023-02-19T01:04:06.829Z,75.97
2023-02-19T01:06:34.570Z,76.27
2023-02-19T01:09:01.139Z,76.74
2023-02-19T01:11:27.730Z,76.45
2023-02-19T01:13:58.939Z,76.36
2023-02-19T01:16:27.306Z,76.95
2023-02-19T01:18:56.373Z,79.85
2023-02-19T01:21:26.850Z,80.66
2023-02-19T01:23:55.021Z,79.68
2023-02-19T01:26:25.867Z,80.08
2023-02-19T01:28:53.125Z,79.30
2023-02-19T01:31:24.341Z,79.31
2023-02-19T01:33:56.500Z,79.51
2023-02-19T01:36:23.800Z,78.11
2023-02-19T01:38:50.683Z,77.67
2023-02-19T01:41:25.055Z,77.45
2023-02-19T01:44:28.008Z,77.49
2023-02-19T01:46:57.561Z,77.20
2023-02-19T01:49:39.404Z,76.85
2023-02-19T01:52:10.675Z,77.38
2023-02-19T01:54:42.730Z,76.85
2023-02-19T01:57:18.891Z,76.41
2023-02-19T01:59:49.973Z,75.47
2023-02-19T02:02:16.701Z,76.47
2023-02-19T02:04:43.300Z,76.14
2023-02-19T02:07:29.782Z,77.02
2023-02-19T02:10:15.323Z,77.60
2023-02-19T02:12:41.838Z,77.06
2023-02-19T02:15:09.080Z,76.98
2023-02-19T02:17:56.579Z,76.43
2023-02-19T02:20:35.839Z,76.48
2023-02-19T02:23:32.746Z,76.20
2023-02-19T02:26:08.036Z,76.01
2023-02-19T02:29:02.036Z,75.97
2023-02-19T02:31:54.679Z,76.02
2023-02-19T02:34:34.595Z,75.35
2023-02-19T02:37:04.166Z,75.93
2023-02-19T02:39:32.451Z,76.27
2023-02-19T02:42:18.826Z,75.99
2023-02-19T02:45:05.724Z,76.05
2023-02-19T02:47:41.450Z,75.84
2023-02-19T02:50:23.751Z,76.27
2023-02-19T02:53:16.916Z,75.80
2023-02-19T02:55:49.488Z,76.11
2023-02-19T02:58:18.236Z,76.94
2023-02-19T03:01:11.681Z,77.25
2023-02-19T03:03:43.880Z,76.92
2023-02-19T03:06:14.775Z,76.84
2023-02-19T03:08:59.190Z,75.00
2023-02-19T03:12:04.352Z,76.10
2023-02-19T03:15:05.279Z,76.41
2023-02-19T03:18:01.852Z,77.25
2023-02-19T03:20:31.699Z,77.45
2023-02-19T03:23:01.932Z,77.13
2023-02-19T03:25:54.096Z,76.67
2023-02-19T03:28:46.992Z,77.17
2023-02-19T03:31:21.298Z,76.49
2023-02-19T03:33:56.459Z,76.50
2023-02-19T03:36:27.110Z,76.59
2023-02-19T03:39:09.051Z,76.52
2023-02-19T03:41:48.062Z,76.86
2023-02-19T03:45:01.572Z,76.90
2023-02-19T03:47:34.280Z,77.24
2023-02-19T03:50:25.524Z,77.33
2023-02-19T03:53:22.828Z,76.44
2023-02-19T03:56:13.812Z,76.47
2023-02-19T03:58:49.461Z,76.88
2023-02-19T04:01:39.229Z,76.05
2023-02-19T04:04:40.913Z,76.25
2023-02-19T04:07:08.198Z,76.30
2023-02-19T04:09:44.424Z,76.03
2023-02-19T04:12:13.729Z,75.57
2023-02-19T04:14:49.912Z,76.35
2023-02-19T04:17:29.504Z,75.57
2023-02-19T04:19:59.804Z,75.99
2023-02-19T04:22:26.961Z,74.30
2023-02-19T04:24:55.533Z,75.89
2023-02-19T04:27:22.150Z,77.10
2023-02-19T04:29:48.680Z,77.22
2023-02-19T04:32:15.223Z,76.69
2023-02-19T04:34:41.721Z,75.50
2023-02-19T04:37:08.282Z,77.04
2023-02-19T04:39:35.248Z,78.87
2023-02-19T04:42:01.700Z,78.76
2023-02-19T04:44:28.435Z,80.62
2023-02-19T04:46:55.140Z,82.57
2023-02-19T04:49:21.599Z,83.28
2023-02-19T04:51:48.046Z,82.63
2023-02-19T04:54:14.528Z,82.48
2023-02-19T04:56:41.032Z,82.75
2023-02-19T04:59:07.503Z,81.50
2023-02-19T05:01:34.084Z,82.24
2023-02-19T05:04:00.678Z,81.18
2023-02-19T05:06:27.455Z,79.92
2023-02-19T05:08:54.052Z,80.70
2023-02-19T05:11:20.658Z,78.07
2023-02-19T05:13:47.167Z,79.28
2023-02-19T05:16:16.449Z,79.08
2023-02-19T05:18:45.795Z,78.83
2023-02-19T05:21:13.287Z,79.16
2023-02-19T05:23:40.338Z,78.59
2023-02-19T05:26:11.387Z,78.35
2023-02-19T05:28:37.918Z,78.61
2023-02-19T05:31:09.052Z,77.76
2023-02-19T05:33:37.211Z,77.34
2023-02-19T05:36:11.571Z,77.01
2023-02-19T05:38:39.565Z,76.93
2023-02-19T05:41:31.064Z,76.58
2023-02-19T05:43:58.134Z,76.40
2023-02-19T05:46:27.860Z,75.75
2023-02-19T05:48:54.642Z,76.23
2023-02-19T05:51:24.196Z,75.87
2023-02-19T05:53:51.173Z,75.69
2023-02-19T05:56:26.704Z,75.50
2023-02-19T05:58:54.753Z,76.23
2023-02-19T06:01:25.504Z,76.44
2023-02-19T06:03:52.248Z,76.43
2023-02-19T06:06:20.621Z,76.47
2023-02-19T06:08:50.202Z,76.13
2023-02-19T06:11:18.131Z,75.49
2023-02-19T06:13:45.083Z,75.95
2023-02-19T06:16:11.961Z,75.10
2023-02-19T06:18:40.551Z,75.23
2023-02-19T06:21:10.717Z,75.15
2023-02-19T06:23:38.679Z,74.71
2023-02-19T06:26:15.214Z,74.49
2023-02-19T06:28:42.397Z,74.51
2023-02-19T06:31:10.937Z,74.69
2023-02-19T06:33:42.224Z,75.23
2023-02-19T06:36:14.860Z,75.10
2023-02-19T06:38:42.088Z,74.83
2023-02-19T06:41:10.368Z,74.46
2023-02-19T06:43:37.476Z,74.56
2023-02-19T06:46:06.545Z,74.38
2023-02-19T06:48:34.604Z,74.21
2023-02-19T06:51:01.134Z,74.35
2023-02-19T06:53:27.762Z,74.55
2023-02-19T06:56:04.364Z,74.09
2023-02-19T06:58:31.830Z,74.89
2023-02-19T07:00:58.573Z,75.17
2023-02-19T07:03:26.303Z,74.67
2023-02-19T07:05:53.473Z,73.88
2023-02-19T07:08:20.292Z,73.74
2023-02-19T07:10:55.728Z,73.72
2023-02-19T07:13:23.968Z,73.63
2023-02-19T07:15:52.172Z,74.29
2023-02-19T07:18:18.921Z,74.21
2023-02-19T07:20:45.503Z,73.77
2023-02-19T07:23:12.023Z,73.20
2023-02-19T07:25:39.143Z,73.76
2023-02-19T07:28:07.133Z,74.55
2023-02-19T07:30:33.931Z,74.13
2023-02-19T07:33:00.808Z,74.02
2023-02-19T07:35:27.578Z,74.20
2023-02-19T07:37:54.108Z,74.12
2023-02-19T07:40:20.887Z,73.66
2023-02-19T07:42:47.395Z,73.20
2023-02-19T07:45:13.944Z,72.84
2023-02-19T07:47:40.429Z,72.38
2023-02-19T07:50:07.635Z,72.59
2023-02-19T07:52:34.305Z,72.92
2023-02-19T07:55:00.845Z,73.29
2023-02-19T07:57:31.178Z,73.46
2023-02-19T07:59:58.691Z,73.45
2023-02-19T08:02:43.652Z,73.71
2023-02-19T08:05:10.645Z,73.88
2023-02-19T08:07:37.673Z,73.67
2023-02-19T08:10:24.076Z,72.89
2023-02-19T08:13:19.264Z,72.81
2023-02-19T08:16:16.053Z,72.89
2023-02-19T08:18:44.452Z,72.93
2023-02-19T08:21:11.970Z,71.99
2023-02-19T08:23:39.714Z,71.77
2023-02-19T08:26:06.795Z,71.83
2023-02-19T08:28:33.460Z,72.64
2023-02-19T08:31:03.677Z,72.63
2023-02-19T08:33:31.163Z,73.07
2023-02-19T08:36:04.659Z,73.21
2023-02-19T08:38:34.653Z,73.03
2023-02-19T08:41:09.270Z,73.22
2023-02-19T08:43:36.898Z,73.12
2023-02-19T08:46:07.127Z,72.96
2023-02-19T08:48:33.873Z,73.22
2023-02-19T08:51:04.374Z,71.41
2023-02-19T08:53:32.699Z,72.60
2023-02-19T08:56:03.889Z,72.83
2023-02-19T08:58:30.317Z,72.91
2023-02-19T09:00:56.820Z,73.00
2023-02-19T09:03:23.317Z,72.95
2023-02-19T09:05:49.833Z,72.89
2023-02-19T09:08:17.498Z,72.61
2023-02-19T09:10:44.135Z,72.69
2023-02-19T09:13:10.649Z,73.00
2023-02-19T09:15:39.925Z,72.60
2023-02-19T09:18:06.369Z,72.44
2023-02-19T09:20:32.891Z,72.59
2023-02-19T09:23:00.805Z,72.64
2023-02-19T09:25:27.374Z,72.12
2023-02-19T09:27:57.307Z,72.65
2023-02-19T09:30:24.226Z,72.17
2023-02-19T09:32:50.826Z,72.42
2023-02-19T09:35:17.483Z,71.89
2023-02-19T09:37:44.209Z,70.94
2023-02-19T09:40:11.618Z,71.57
2023-02-19T09:42:42.862Z,71.81
2023-02-19T09:45:23.070Z,71.99
2023-02-19T09:47:56.482Z,72.28
2023-02-19T09:50:34.072Z,72.53
2023-02-19T09:53:11.083Z,71.55
2023-02-19T09:55:44.086Z,71.79
2023-02-19T09:58:37.738Z,71.27
2023-02-19T10:01:10.726Z,71.50
2023-02-19T10:03:46.843Z,70.92
2023-02-19T10:06:25.622Z,70.48
2023-02-19T10:08:59.897Z,70.87
2023-02-19T10:11:27.256Z,70.76
2023-02-19T10:14:09.304Z,70.31
2023-02-19T10:16:43.232Z,70.65
2023-02-19T10:19:12.448Z,70.94
2023-02-19T10:21:39.925Z,70.61
2023-02-19T10:24:13.615Z,70.30
2023-02-19T10:26:40.122Z,70.45
2023-02-19T10:29:09.608Z,70.40
2023-02-19T10:31:39.151Z,70.56
2023-02-19T10:34:22.441Z,69.80
2023-02-19T10:36:54.575Z,70.07
2023-02-19T10:39:39.374Z,69.07
2023-02-19T10:42:06.035Z,68.20
2023-02-19T10:44:45.647Z,66.75
2023-02-19T10:47:20.432Z,67.53
2023-02-19T10:49:49.706Z,67.79
2023-02-19T10:52:36.593Z,67.90
2023-02-19T10:55:19.547Z,68.66
2023-02-19T10:57:46.830Z,69.19
2023-02-19T11:00:16.283Z,68.72
2023-02-19T11:02:44.357Z,68.93
2023-02-19T11:05:16.542Z,69.01
2023-02-19T11:07:56.095Z,68.84
2023-02-19T11:10:40.185Z,69.07
2023-02-19T11:13:18.353Z,69.63
2023-02-19T11:15:54.290Z,69.31
2023-02-19T11:18:28.980Z,69.92
2023-02-19T11:21:00.560Z,70.15
2023-02-19T11:23:32.311Z,69.33
2023-02-19T11:26:07.035Z,69.37
2023-02-19T11:28:37.566Z,69.76
2023-02-19T11:31:31.820Z,69.75
2023-02-19T11:34:13.601Z,69.76
2023-02-19T11:36:42.378Z,69.83
2023-02-19T11:39:15.059Z,69.10
2023-02-19T11:42:46.145Z,69.19
2023-02-19T11:45:47.438Z,70.12
2023-02-19T11:48:31.305Z,70.83
2023-02-19T11:51:37.875Z,70.75
2023-02-19T11:54:32.300Z,70.62
2023-02-19T11:57:37.817Z,70.50
2023-02-19T12:00:23.354Z,70.89
2023-02-19T12:03:41.068Z,70.00
2023-02-19T12:06:46.426Z,70.84
2023-02-19T12:09:25.900Z,70.86
2023-02-19T12:12:16.567Z,71.61
2023-02-19T12:15:09.394Z,70.76
2023-02-19T12:18:24.792Z,69.48
2023-02-19T12:21:51.394Z,70.00
2023-02-19T12:24:43.449Z,70.16
2023-02-19T12:27:57.799Z,68.48
2023-02-19T12:30:57.406Z,68.25
2023-02-19T12:33:50.043Z,68.17
2023-02-19T12:36:42.154Z,67.89
2023-02-19T12:39:51.399Z,67.19
2023-02-19T12:42:57.077Z,68.95
2023-02-19T12:45:52.246Z,69.08
2023-02-19T12:48:43.086Z,69.07
2023-02-19T12:51:26.438Z,68.14
2023-02-19T12:54:02.448Z,68.23
2023-02-19T12:56:36.699Z,69.76
2023-02-19T12:59:24.763Z,69.85
2023-02-19T13:02:18.903Z,70.37
2023-02-19T13:05:02.055Z,70.32
2023-02-19T13:07:40.045Z,69.92
2023-02-19T13:10:36.680Z,69.46
2023-02-19T13:13:17.406Z,70.03
2023-02-19T13:15:51.747Z,70.00
2023-02-19T13:18:36.947Z,69.87
2023-02-19T13:21:06.117Z,68.92
2023-02-19T13:24:00.005Z,69.83
2023-02-19T13:26:38.435Z,70.77
2023-02-19T13:29:53.257Z,70.40
2023-02-19T13:32:25.494Z,69.84
2023-02-19T13:35:22.526Z,70.54
2023-02-19T13:37:50.825Z,70.61
2023-02-19T13:40:34.147Z,70.02
2023-02-19T13:43:06.150Z,70.35
2023-02-19T13:45:43.976Z,69.89
2023-02-19T13:48:15.540Z,69.67
2023-02-19T13:50:42.371Z,69.57
2023-02-19T13:53:45.928Z,68.47
2023-02-19T13:56:34.064Z,69.05
2023-02-19T13:59:39.473Z,68.69
2023-02-19T14:02:12.315Z,69.67
2023-02-19T14:05:05.307Z,69.40
2023-02-19T14:07:31.679Z,69.97
2023-02-19T14:09:58.704Z,69.73
2023-02-19T14:12:37.033Z,68.51
2023-02-19T14:15:49.532Z,69.19
2023-02-19T14:18:45.907Z,69.20
2023-02-19T14:21:38.222Z,69.13
2023-02-19T14:24:14.432Z,69.79
2023-02-19T14:26:42.141Z,69.17
2023-02-19T14:29:14.565Z,68.16
2023-02-19T14:31:45.977Z,68.40
2023-02-19T14:34:24.753Z,68.99
2023-02-19T14:37:04.367Z,67.96
2023-02-19T14:39:38.738Z,67.91
2023-02-19T14:42:20.790Z,68.07
2023-02-19T14:45:00.890Z,67.88
2023-02-19T14:47:33.167Z,68.21
2023-02-19T14:50:07.743Z,68.29
2023-02-19T14:52:49.591Z,68.95
2023-02-19T14:55:33.838Z,68.70
2023-02-19T14:58:06.871Z,68.08
2023-02-19T15:00:40.718Z,68.04
2023-02-19T15:03:29.939Z,68.48
2023-02-19T15:06:08.339Z,68.49
2023-02-19T15:09:00.032Z,69.03
2023-02-19T15:11:32.241Z,69.50
2023-02-19T15:14:07.993Z,69.33
2023-02-19T15:16:36.701Z,68.89
2023-02-19T15:19:09.392Z,68.96
2023-02-19T15:21:45.895Z,68.79
2023-02-19T15:24:16.883Z,69.09
2023-02-19T15:26:54.058Z,69.53
2023-02-19T15:29:24.941Z,70.22
2023-02-19T15:32:00.602Z,70.00
2023-02-19T15:34:31.402Z,70.24
2023-02-19T15:37:04.285Z,69.98
2023-02-19T15:39:39.923Z,69.95
2023-02-19T15:42:16.289Z,70.06
2023-02-19T15:45:09.498Z,69.79
2023-02-19T15:48:10.570Z,69.46
2023-02-19T15:50:45.096Z,70.20
2023-02-19T15:53:21.094Z,70.36
2023-02-19T15:56:09.182Z,70.44
2023-02-19T15:58:52.532Z,70.31
2023-02-19T16:01:26.103Z,69.99
2023-02-19T16:03:54.135Z,70.09
2023-02-19T16:06:23.598Z,70.03
2023-02-19T16:08:52.837Z,69.80
2023-02-19T16:11:22.108Z,69.73
2023-02-19T16:13:50.623Z,69.98
2023-02-19T16:16:37.081Z,70.22
2023-02-19T16:19:06.556Z,70.72
2023-02-19T16:21:33.444Z,70.59
2023-02-19T16:24:12.638Z,70.37
2023-02-19T16:26:44.644Z,70.74
2023-02-19T16:29:32.810Z,70.58
2023-02-19T16:32:03.783Z,70.93
2023-02-19T16:34:40.705Z,71.35
2023-02-19T16:37:40.837Z,71.07
2023-02-19T16:40:07.433Z,71.58
2023-02-19T16:43:06.851Z,71.04
2023-02-19T16:45:33.506Z,71.32
2023-02-19T16:48:00.189Z,71.00
2023-02-19T16:50:29.640Z,71.50
2023-02-19T16:53:00.477Z,71.19
2023-02-19T16:55:34.576Z,71.16
2023-02-19T16:58:01.455Z,70.59
2023-02-19T17:00:31.463Z,70.15
2023-02-19T17:03:08.762Z,70.85
2023-02-19T17:05:37.638Z,70.67
2023-02-19T17:08:34.019Z,70.92
2023-02-19T17:11:04.203Z,71.28
2023-02-19T17:13:31.244Z,71.33
2023-02-19T17:15:58.847Z,71.12
2023-02-19T17:18:25.421Z,71.12
2023-02-19T17:21:24.191Z,70.83
2023-02-19T17:23:52.051Z,71.54
2023-02-19T17:26:22.303Z,70.90
2023-02-19T17:28:49.475Z,71.10
2023-02-19T17:31:16.745Z,70.60
2023-02-19T17:33:44.038Z,70.94
2023-02-19T17:36:30.384Z,70.58
2023-02-19T17:38:58.654Z,71.02
2023-02-19T17:41:25.604Z,71.32
2023-02-19T17:43:52.149Z,71.57
2023-02-19T17:46:22.076Z,71.73
2023-02-19T17:48:48.955Z,71.43
2023-02-19T17:51:15.763Z,71.57
2023-02-19T17:53:43.945Z,71.71
2023-02-19T17:56:18.347Z,71.68
2023-02-19T17:58:45.118Z,71.93
2023-02-19T18:01:12.580Z,71.70
2023-02-19T18:03:39.548Z,71.26
2023-02-19T18:06:06.592Z,71.46
2023-02-19T18:08:33.095Z,71.17
2023-02-19T18:11:00.795Z,71.16
2023-02-19T18:13:27.312Z,71.22
2023-02-19T18:15:53.790Z,71.40
2023-02-19T18:18:23.137Z,71.58
2023-02-19T18:20:50.116Z,71.10
2023-02-19T18:23:16.667Z,71.14
2023-02-19T18:25:43.133Z,71.56
2023-02-19T18:28:09.692Z,71.18
2023-02-19T18:30:36.307Z,71.36
2023-02-19T18:33:02.883Z,70.96
2023-02-19T18:35:29.386Z,71.72
2023-02-19T18:37:58.588Z,70.90
2023-02-19T18:40:25.945Z,71.53
2023-02-19T18:42:52.998Z,71.24
2023-02-19T18:45:19.478Z,71.81
2023-02-19T18:47:48.077Z,71.65
2023-02-19T18:50:17.017Z,72.35
2023-02-19T18:52:43.513Z,72.35
2023-02-19T18:55:14.352Z,72.18
2023-02-19T18:57:41.036Z,72.13
2023-02-19T19:00:08.386Z,71.57
2023-02-19T19:02:48.277Z,71.10
2023-02-19T19:05:22.545Z,70.37
2023-02-19T19:07:57.246Z,71.26
2023-02-19T19:10:24.131Z,70.96
2023-02-19T19:12:51.689Z,70.78
2023-02-19T19:15:19.013Z,69.88
2023-02-19T19:17:47.783Z,70.39
2023-02-19T19:20:21.195Z,69.83
2023-02-19T19:22:53.021Z,69.69
2023-02-19T19:25:20.930Z,70.14
2023-02-19T19:27:47.444Z,69.20
2023-02-19T19:30:14.523Z,69.25
2023-02-19T19:32:41.101Z,69.66
2023-02-19T19:35:11.013Z,69.51
2023-02-19T19:37:37.524Z,69.97
2023-02-19T19:40:04.654Z,69.44
2023-02-19T19:42:31.090Z,69.60
2023-02-19T19:44:57.620Z,69.60
2023-02-19T19:47:24.177Z,68.88
2023-02-19T19:49:50.659Z,69.39
2023-02-19T19:52:17.237Z,68.86
2023-02-19T19:54:44.147Z,68.54
2023-02-19T19:57:11.598Z,68.46
2023-02-19T19:59:39.197Z,68.73
2023-02-19T20:02:07.420Z,68.28
2023-02-19T20:04:33.984Z,68.94
2023-02-19T20:07:00.865Z,69.39
2023-02-19T20:09:28.941Z,69.94
2023-02-19T20:11:56.565Z,69.12
2023-02-19T20:14:25.122Z,69.25
2023-02-19T20:16:53.254Z,69.11
2023-02-19T20:19:21.515Z,69.06
2023-02-19T20:21:51.880Z,69.45
2023-02-19T20:24:25.962Z,69.34
2023-02-19T20:26:59.420Z,68.69
2023-02-19T20:29:28.973Z,68.33
2023-02-19T20:32:02.424Z,68.10
2023-02-19T20:34:29.851Z,68.47
2023-02-19T20:36:56.313Z,68.23
2023-02-19T20:39:28.530Z,68.48
2023-02-19T20:41:56.230Z,68.38
2023-02-19T20:44:22.774Z,67.78
2023-02-19T20:46:52.177Z,67.57
2023-02-19T20:49:22.251Z,67.76
2023-02-19T20:51:57.675Z,67.71
2023-02-19T20:54:28.573Z,67.17
2023-02-19T20:56:58.244Z,67.94
2023-02-19T20:59:30.896Z,68.12
2023-02-19T21:01:59.673Z,68.34
2023-02-19T21:04:27.078Z,67.99
2023-02-19T21:06:53.799Z,68.08
2023-02-19T21:09:21.811Z,67.28
2023-02-19T21:11:49.656Z,67.35
2023-02-19T21:14:17.020Z,67.67
2023-02-19T21:16:43.718Z,68.45
2023-02-19T21:19:10.220Z,68.27
2023-02-19T21:21:39.209Z,68.38
2023-02-19T21:24:06.032Z,67.76
2023-02-19T21:26:39.104Z,67.87
2023-02-19T21:29:07.974Z,67.36
2023-02-19T21:31:41.640Z,67.60
2023-02-19T21:34:11.271Z,67.96
2023-02-19T21:36:38.361Z,68.39
2023-02-19T21:39:07.454Z,68.39
2023-02-19T21:41:34.083Z,68.82
2023-02-19T21:44:00.899Z,68.75
2023-02-19T21:46:27.615Z,68.03
2023-02-19T21:48:56.445Z,68.25
2023-02-19T21:51:31.318Z,68.15
2023-02-19T21:53:58.981Z,67.99
2023-02-19T21:56:29.527Z,68.39
2023-02-19T21:58:56.876Z,67.96
2023-02-19T22:01:27.314Z,67.99
2023-02-19T22:03:54.829Z,67.45
2023-02-19T22:06:28.033Z,67.27
2023-02-19T22:08:55.555Z,67.73
2023-02-19T22:11:22.164Z,68.17
2023-02-19T22:13:49.056Z,68.40
2023-02-19T22:16:17.391Z,67.42
2023-02-19T22:18:53.200Z,67.25
2023-02-19T22:21:21.381Z,67.38
2023-02-19T22:23:50.458Z,67.46
2023-02-19T22:26:35.466Z,67.33
2023-02-19T22:29:06.780Z,67.47
2023-02-19T22:31:34.288Z,68.19
2023-02-19T22:34:00.822Z,68.59
2023-02-19T22:36:31.026Z,68.27
2023-02-19T22:38:57.616Z,67.93
2023-02-19T22:41:24.482Z,67.82
2023-02-19T22:43:55.495Z,67.61
2023-02-19T22:46:26.819Z,67.57
2023-02-19T22:48:53.325Z,67.91
2023-02-19T22:51:23.410Z,67.72
2023-02-19T22:53:56.442Z,67.70
2023-02-19T22:56:27.660Z,68.16
2023-02-19T22:58:56.532Z,68.21
2023-02-19T23:01:24.605Z,67.98
2023-02-19T23:03:55.893Z,67.93
2023-02-19T23:06:29.938Z,67.70
2023-02-19T23:08:59.975Z,68.59
2023-02-19T23:11:30.568Z,68.05
2023-02-19T23:13:58.150Z,68.91
2023-02-19T23:16:25.441Z,68.54
2023-02-19T23:18:52.282Z,68.43
2023-02-19T23:21:20.024Z,68.88
2023-02-19T23:23:47.398Z,69.01
2023-02-19T23:26:15.986Z,68.98
2023-02-19T23:28:44.635Z,68.47
2023-02-19T23:31:12.771Z,68.67
2023-02-19T23:33:40.267Z,68.46
2023-02-19T23:36:08.145Z,68.60
2023-02-19T23:38:34.752Z,68.58
2023-02-19T23:41:01.791Z,68.19
2023-02-19T23:43:28.320Z,68.50
2023-02-19T23:45:54.953Z,68.85
2023-02-19T23:48:21.531Z,68.74
2023-02-19T23:50:48.042Z,68.85
2023-02-19T23:53:14.524Z,69.24
2023-02-19T23:55:41.001Z,68.99
2023-02-19T23:58:07.502Z,69.42
